Time;durP1;ratioP1;P1;durP2;ratioP2;P2;SDS_P1;SDS_P2;PMS_P1;PMS_P2;Temp;Humidity;BMP_temperature;BMP_pressure;BME280_temperature;BME280_humidity;BME280_pressure;Samples;Min_cycle;Max_cycle;Signal;HPM_P1;HPM_P2
2023/11/29 00:00:57;;;;;;;11.10;7.70;;;5.00;99.90;;;;;;5014241;28;20184;-73
2023/11/29 00:03:23;;;;;;;10.77;8.33;;;5.00;99.90;;;;;;5014064;28;20175;-72
2023/11/29 00:05:48;;;;;;;10.63;8.00;;;4.90;99.90;;;;;;5014202;28;20654;-72
2023/11/29 00:08:14;;;;;;;10.33;7.80;;;4.90;99.90;;;;;;5013680;28;20179;-72
2023/11/29 00:10:40;;;;;;;9.37;7.87;;;4.90;99.90;;;;;;5014878;28;20499;-73
2023/11/29 00:13:05;;;;;;;12.50;9.10;;;4.90;99.90;;;;;;4997140;28;20176;-73
2023/11/29 00:15:31;;;;;;;9.47;8.47;;;4.90;99.90;;;;;;5013186;28;20207;-73
2023/11/29 00:17:57;;;;;;;10.97;8.60;;;4.80;99.90;;;;;;5014389;28;20214;-72
2023/11/29 00:20:23;;;;;;;10.47;8.77;;;5.00;99.90;;;;;;5012994;28;20433;-73
2023/11/29 00:22:49;;;;;;;10.60;8.27;;;5.00;99.90;;;;;;5014152;28;20243;-73
2023/11/29 00:25:14;;;;;;;9.53;7.73;;;5.00;99.90;;;;;;5013317;28;21401;-73
2023/11/29 00:27:41;;;;;;;12.00;8.43;;;5.10;99.90;;;;;;5014454;28;20184;-72
2023/11/29 00:30:07;;;;;;;12.80;8.83;;;4.80;99.90;;;;;;5014241;28;20421;-73
2023/11/29 00:32:33;;;;;;;10.80;8.82;;;5.00;99.90;;;;;;5013668;28;20384;-72
2023/11/29 00:34:58;;;;;;;11.03;9.00;;;5.00;99.90;;;;;;5014086;28;20215;-72
2023/11/29 00:37:24;;;;;;;11.07;9.47;;;4.90;99.90;;;;;;5013511;28;20593;-72
2023/11/29 00:39:50;;;;;;;12.40;8.33;;;4.90;99.90;;;;;;4984869;28;20214;-72
2023/11/29 00:42:16;;;;;;;8.90;8.00;;;5.00;99.90;;;;;;4993573;28;20177;-72
2023/11/29 00:44:42;;;;;;;9.73;7.85;;;4.70;99.90;;;;;;5012217;28;20192;-73
2023/11/29 00:47:07;;;;;;;12.30;8.00;;;5.00;99.90;;;;;;5012900;28;20198;-73
2023/11/29 00:49:33;;;;;;;8.90;8.00;;;5.00;99.90;;;;;;5011672;28;20306;-72
2023/11/29 00:51:59;;;;;;;9.90;7.90;;;4.90;99.90;;;;;;4994786;28;20241;-73
2023/11/29 00:54:24;;;;;;;10.60;8.03;;;5.30;99.90;;;;;;5011911;28;20296;-72
2023/11/29 00:56:50;;;;;;;8.23;7.00;;;5.00;99.90;;;;;;5013728;28;20211;-73
2023/11/29 00:59:16;;;;;;;8.73;7.27;;;5.00;99.90;;;;;;5012775;28;20175;-72
2023/11/29 01:01:42;;;;;;;9.77;7.47;;;5.10;99.90;;;;;;5013241;28;20263;-73
2023/11/29 01:04:07;;;;;;;9.90;7.67;;;5.10;99.90;;;;;;5013301;28;20792;-73
2023/11/29 01:06:33;;;;;;;7.70;6.80;;;5.00;99.90;;;;;;5012444;28;20279;-73
2023/11/29 01:08:59;;;;;;;9.53;7.40;;;5.10;99.90;;;;;;4995575;28;20179;-73
2023/11/29 01:11:25;;;;;;;7.30;6.57;;;5.00;99.90;;;;;;5012635;28;20180;-72
2023/11/29 01:13:51;;;;;;;9.20;7.60;;;4.90;99.90;;;;;;5012448;28;20254;-72
2023/11/29 01:16:16;;;;;;;8.87;6.70;;;5.00;99.90;;;;;;5012325;28;20187;-72
2023/11/29 01:18:43;;;;;;;7.97;6.40;;;5.20;99.90;;;;;;4995830;28;20473;-72
2023/11/29 01:21:12;;;;;;;7.07;6.38;;;5.30;99.90;;;;;;5012059;28;20437;-73
2023/11/29 01:23:38;;;;;;;8.20;6.25;;;5.10;99.90;;;;;;5012563;28;20266;-73
2023/11/29 01:26:04;;;;;;;8.23;7.33;;;5.10;99.90;;;;;;4995554;28;20254;-72
2023/11/29 01:28:30;;;;;;;6.33;5.63;;;5.10;99.90;;;;;;4994394;28;20175;-73
2023/11/29 01:30:55;;;;;;;7.43;6.10;;;5.10;99.90;;;;;;5012808;28;20926;-72
2023/11/29 01:33:21;;;;;;;6.87;6.20;;;5.20;99.90;;;;;;5012277;28;20647;-73
2023/11/29 01:35:47;;;;;;;12.70;5.97;;;5.20;99.90;;;;;;5013102;28;20274;-73
2023/11/29 01:38:13;;;;;;;6.80;6.10;;;5.20;99.90;;;;;;5012675;28;20179;-73
2023/11/29 01:40:38;;;;;;;6.77;6.17;;;5.10;99.90;;;;;;5011993;28;20168;-73
2023/11/29 01:43:04;;;;;;;7.57;6.70;;;5.30;99.90;;;;;;5012661;28;20214;-73
2023/11/29 01:45:30;;;;;;;6.93;6.30;;;4.80;99.90;;;;;;5012167;28;20179;-73
2023/11/29 01:47:56;;;;;;;6.53;5.80;;;5.20;99.90;;;;;;5012764;28;20199;-72
2023/11/29 01:50:25;;;;;;;6.37;5.70;;;5.20;99.90;;;;;;5011408;28;20194;-72
2023/11/29 01:52:52;;;;;;;6.70;6.00;;;5.20;99.90;;;;;;4994874;28;20437;-72
2023/11/29 01:55:21;;;;;;;7.13;6.43;;;5.20;99.90;;;;;;5011096;28;20470;-71
2023/11/29 01:57:49;;;;;;;7.07;6.37;;;5.20;99.90;;;;;;5012845;28;20443;-72
2023/11/29 02:00:16;;;;;;;9.00;6.07;;;5.30;99.90;;;;;;4994650;28;21036;-73
2023/11/29 02:02:42;;;;;;;7.28;6.57;;;5.20;99.90;;;;;;5012850;28;20411;-72
2023/11/29 02:05:09;;;;;;;7.30;6.50;;;5.20;99.90;;;;;;5012414;28;20205;-73
2023/11/29 02:07:35;;;;;;;7.72;6.47;;;5.10;99.90;;;;;;5012487;28;20183;-72
2023/11/29 02:10:03;;;;;;;8.38;6.63;;;5.20;99.90;;;;;;5012783;28;20174;-73
2023/11/29 02:12:29;;;;;;;7.13;6.43;;;5.00;99.90;;;;;;5012143;28;20620;-72
2023/11/29 02:14:58;;;;;;;8.43;7.13;;;5.10;99.90;;;;;;5011887;28;20203;-73
2023/11/29 02:17:24;;;;;;;8.45;7.10;;;5.10;99.90;;;;;;5011835;28;20179;-72
2023/11/29 02:19:51;;;;;;;7.13;6.10;;;5.10;99.90;;;;;;4994159;28;20189;-72
2023/11/29 02:22:18;;;;;;;8.05;7.07;;;5.10;99.90;;;;;;5012515;28;20410;-73
2023/11/29 02:24:47;;;;;;;8.85;6.32;;;4.70;99.90;;;;;;5012585;28;20210;-73
2023/11/29 02:27:13;;;;;;;6.85;6.15;;;5.30;99.90;;;;;;5012218;28;20246;-73
2023/11/29 02:29:39;;;;;;;6.80;6.10;;;5.20;99.90;;;;;;5012012;28;20614;-73
2023/11/29 02:32:06;;;;;;;7.07;6.37;;;5.40;99.90;;;;;;5011522;28;20183;-73
2023/11/29 02:34:32;;;;;;;7.30;6.60;;;5.20;99.90;;;;;;5011876;28;20658;-73
2023/11/29 02:36:57;;;;;;;8.00;5.97;;;5.40;99.90;;;;;;5012461;28;20266;-72
2023/11/29 02:39:23;;;;;;;8.53;6.93;;;4.70;99.90;;;;;;5011945;28;20259;-72
2023/11/29 02:41:49;;;;;;;8.17;6.30;;;4.80;99.90;;;;;;5011784;28;20175;-72
2023/11/29 02:44:15;;;;;;;7.93;6.70;;;5.30;99.90;;;;;;4994070;28;20245;-73
2023/11/29 02:46:41;;;;;;;9.53;6.60;;;5.30;99.90;;;;;;4993687;28;20434;-72
2023/11/29 02:49:06;;;;;;;7.03;6.33;;;4.90;99.90;;;;;;5011828;28;20426;-72
2023/11/29 02:51:32;;;;;;;8.77;6.20;;;5.30;99.90;;;;;;5011257;28;20183;-72
2023/11/29 02:53:58;;;;;;;8.37;6.63;;;5.40;99.90;;;;;;5011368;28;20615;-72
2023/11/29 02:56:24;;;;;;;9.93;6.77;;;5.40;99.90;;;;;;5010577;28;20543;-72
2023/11/29 02:58:49;;;;;;;8.40;6.63;;;5.40;99.90;;;;;;5011284;28;20179;-73
2023/11/29 03:01:15;;;;;;;8.50;7.07;;;5.40;99.90;;;;;;5010822;28;20522;-73
2023/11/29 03:03:41;;;;;;;9.80;7.10;;;5.60;99.90;;;;;;4992918;28;20390;-72
2023/11/29 03:06:07;;;;;;;6.87;6.20;;;5.50;99.90;;;;;;4993380;28;20193;-73
2023/11/29 03:08:33;;;;;;;8.50;7.60;;;5.60;99.90;;;;;;5010348;28;20181;-72
2023/11/29 03:10:59;;;;;;;6.90;6.23;;;5.50;99.90;;;;;;5010881;28;20838;-71
2023/11/29 03:13:28;;;;;;;9.47;7.50;;;5.50;99.90;;;;;;5010010;28;20275;-72
2023/11/29 03:15:55;;;;;;;8.20;7.00;;;5.50;99.90;;;;;;5012966;28;20461;-72
2023/11/29 03:18:21;;;;;;;8.70;6.30;;;5.60;99.90;;;;;;4996074;28;20242;-63
2023/11/29 03:20:47;;;;;;;7.60;6.80;;;5.60;99.90;;;;;;5013722;28;20918;-73
2023/11/29 03:23:13;;;;;;;11.80;6.80;;;5.60;99.90;;;;;;5014357;28;20175;-72
2023/11/29 03:25:38;;;;;;;9.83;7.47;;;5.60;99.90;;;;;;5013317;28;20415;-72
2023/11/29 03:28:04;;;;;;;8.03;7.20;;;5.70;99.90;;;;;;5013908;28;20179;-72
2023/11/29 03:30:30;;;;;;;8.87;6.67;;;5.70;99.90;;;;;;5013435;28;20267;-72
2023/11/29 03:32:56;;;;;;;8.80;7.50;;;5.80;99.90;;;;;;5013362;28;20499;-71
2023/11/29 03:35:22;;;;;;;9.50;6.90;;;5.60;99.90;;;;;;5013535;28;21065;-61
2023/11/29 03:37:48;;;;;;;10.07;8.10;;;5.60;99.90;;;;;;5014067;28;20423;-72
2023/11/29 03:40:14;;;;;;;9.17;7.30;;;5.70;99.90;;;;;;5014139;28;20195;-72
2023/11/29 03:42:39;;;;;;;9.90;8.20;;;5.70;99.90;;;;;;5012976;28;20426;-72
2023/11/29 03:45:06;;;;;;;9.27;7.37;;;5.70;99.90;;;;;;5012234;28;20435;-72
2023/11/29 03:47:32;;;;;;;11.33;7.53;;;5.60;99.90;;;;;;5013347;28;20540;-72
2023/11/29 03:49:57;;;;;;;9.07;8.10;;;5.80;99.90;;;;;;5014005;28;20411;-72
2023/11/29 03:52:24;;;;;;;11.13;8.13;;;5.70;99.90;;;;;;4972090;28;1172504;-67
2023/11/29 03:54:53;;;;;;;11.25;8.02;;;5.70;99.90;;;;;;5014914;28;20244;-72
2023/11/29 03:57:19;;;;;;;9.10;7.63;;;5.70;99.90;;;;;;5014976;28;20172;-72
2023/11/29 03:59:45;;;;;;;9.17;7.13;;;5.70;99.90;;;;;;5013788;28;20498;-72
2023/11/29 04:02:11;;;;;;;9.00;8.10;;;5.60;99.90;;;;;;5014810;28;20176;-73
2023/11/29 04:04:39;;;;;;;8.73;7.83;;;5.70;99.90;;;;;;5014187;28;20427;-72
2023/11/29 04:07:05;;;;;;;12.90;8.13;;;5.70;99.90;;;;;;5014735;28;20373;-72
2023/11/29 04:09:30;;;;;;;11.03;8.50;;;5.70;99.90;;;;;;5013458;28;20173;-72
2023/11/29 04:11:57;;;;;;;10.23;8.97;;;5.90;99.90;;;;;;5014652;28;20417;-73
2023/11/29 04:14:22;;;;;;;11.23;8.60;;;5.80;99.90;;;;;;5013611;28;20203;-73
2023/11/29 04:16:48;;;;;;;9.10;7.57;;;5.80;99.90;;;;;;5013404;28;20484;-72
2023/11/29 04:19:14;;;;;;;10.73;8.43;;;5.70;99.90;;;;;;5014555;28;20172;-73
2023/11/29 04:21:40;;;;;;;11.53;8.40;;;5.70;99.90;;;;;;4995966;28;20231;-72
2023/11/29 04:24:06;;;;;;;9.90;7.87;;;5.90;99.90;;;;;;5013826;28;20187;-73
2023/11/29 04:26:33;;;;;;;11.50;8.20;;;5.80;99.90;;;;;;5012960;28;20482;-73
2023/11/29 04:29:00;;;;;;;9.00;7.80;;;5.70;99.90;;;;;;5014359;28;20410;-72
2023/11/29 04:31:26;;;;;;;9.23;8.17;;;5.60;99.90;;;;;;5013704;28;20407;-68
2023/11/29 04:33:52;;;;;;;9.90;7.63;;;5.60;99.90;;;;;;5013867;28;20425;-72
2023/11/29 04:36:19;;;;;;;11.87;8.57;;;5.40;99.90;;;;;;5014147;28;20462;-73
2023/11/29 04:38:45;;;;;;;9.98;8.25;;;5.40;99.90;;;;;;4996073;28;20410;-72
2023/11/29 04:41:11;;;;;;;9.63;8.30;;;5.20;99.90;;;;;;5013764;28;20175;-73
2023/11/29 04:43:37;;;;;;;11.75;8.15;;;5.20;99.90;;;;;;4994843;28;20211;-74
2023/11/29 04:46:03;;;;;;;10.95;7.90;;;5.00;99.90;;;;;;4995485;28;20180;-73
2023/11/29 04:48:34;;;;;;;10.30;7.30;;;5.00;99.90;;;;;;5013407;28;20262;-72
2023/11/29 04:50:59;;;;;;;11.90;8.75;;;4.90;99.90;;;;;;5014133;28;20388;-73
2023/11/29 04:53:25;;;;;;;10.90;8.63;;;4.90;99.90;;;;;;5013501;28;20705;-75
2023/11/29 04:55:55;;;;;;;13.03;9.33;;;4.70;99.90;;;;;;5013499;28;20702;-74
2023/11/29 04:58:22;;;;;;;8.90;7.47;;;4.70;99.90;;;;;;5014091;28;20191;-74
2023/11/29 05:00:48;;;;;;;8.93;7.25;;;4.70;99.90;;;;;;5012628;28;20198;-74
2023/11/29 05:03:20;;;;;;;12.00;9.15;;;4.30;99.90;;;;;;5013504;28;20576;-74
2023/11/29 05:05:46;;;;;;;8.90;7.80;;;4.90;99.90;;;;;;5013160;28;20159;-74
2023/11/29 05:08:12;;;;;;;12.77;8.65;;;4.90;99.90;;;;;;5013673;28;20176;-74
2023/11/29 05:10:38;;;;;;;9.20;8.23;;;4.90;99.90;;;;;;5012298;28;20178;-73
2023/11/29 05:13:05;;;;;;;8.07;7.20;;;4.90;99.90;;;;;;5012146;28;20426;-74
2023/11/29 05:15:31;;;;;;;9.55;7.60;;;5.00;99.90;;;;;;5012528;28;20509;-73
2023/11/29 05:17:57;;;;;;;9.93;7.70;;;5.00;99.90;;;;;;5013638;28;20187;-73
2023/11/29 05:20:23;;;;;;;10.07;8.03;;;5.10;99.90;;;;;;5013288;28;20237;-73
2023/11/29 05:22:48;;;;;;;7.57;6.77;;;5.20;99.90;;;;;;4994319;28;20670;-73
2023/11/29 05:25:14;;;;;;;10.27;8.00;;;5.10;99.90;;;;;;4995651;28;20521;-73
2023/11/29 05:27:40;;;;;;;10.87;8.50;;;4.90;99.90;;;;;;5012729;28;20221;-72
2023/11/29 05:30:08;;;;;;;8.35;7.45;;;4.80;99.90;;;;;;4995776;28;20176;-75
2023/11/29 05:32:33;;;;;;;10.45;8.50;;;5.20;99.90;;;;;;4995414;28;20234;-73
2023/11/29 05:35:00;;;;;;;9.40;6.80;;;5.30;99.90;;;;;;5012712;28;20214;-73
2023/11/29 05:37:25;;;;;;;8.23;6.63;;;5.20;99.90;;;;;;5007543;28;20511;-73
2023/11/29 05:39:51;;;;;;;10.13;7.30;;;5.30;99.90;;;;;;5009192;28;20271;-73
2023/11/29 05:42:17;;;;;;;8.83;7.23;;;5.30;99.90;;;;;;4994454;28;20179;-67
2023/11/29 05:44:43;;;;;;;7.57;6.77;;;5.30;99.90;;;;;;5009245;28;20203;-70
2023/11/29 05:47:09;;;;;;;7.20;6.30;;;5.40;99.90;;;;;;5010442;28;20907;-73
2023/11/29 05:49:34;;;;;;;9.10;6.50;;;5.50;99.90;;;;;;5012158;28;20184;-71
2023/11/29 05:52:00;;;;;;;6.83;6.23;;;5.40;99.90;;;;;;5012518;28;20234;-71
2023/11/29 05:54:26;;;;;;;8.33;7.53;;;5.50;99.90;;;;;;5010856;28;20601;-71
2023/11/29 05:56:52;;;;;;;9.85;7.47;;;5.50;99.90;;;;;;4989386;28;20196;-70
2023/11/29 05:59:18;;;;;;;7.90;7.10;;;5.50;99.90;;;;;;5012646;28;20179;-71
2023/11/29 06:01:43;;;;;;;10.57;9.67;;;5.40;99.90;;;;;;5011933;28;20194;-71
2023/11/29 06:04:09;;;;;;;8.13;7.33;;;5.50;99.90;;;;;;5012531;28;20635;-70
2023/11/29 06:06:35;;;;;;;11.77;10.63;;;5.50;99.90;;;;;;5010474;28;20647;-70
2023/11/29 06:09:01;;;;;;;9.73;7.63;;;5.70;99.90;;;;;;5009554;28;20183;-67
2023/11/29 06:11:27;;;;;;;11.67;9.03;;;5.80;99.90;;;;;;5010344;28;20181;-71
2023/11/29 06:13:52;;;;;;;9.20;8.43;;;5.60;99.90;;;;;;5007235;28;20175;-71
2023/11/29 06:16:19;;;;;;;10.17;9.13;;;5.50;99.90;;;;;;5005306;28;20200;-71
2023/11/29 06:18:45;;;;;;;9.95;8.90;;;5.40;99.90;;;;;;5006783;28;20416;-72
2023/11/29 06:21:11;;;;;;;10.27;8.27;;;5.50;99.90;;;;;;4999926;28;20212;-72
2023/11/29 06:23:37;;;;;;;10.27;8.43;;;5.10;99.90;;;;;;4997555;28;20230;-72
2023/11/29 06:26:06;;;;;;;9.90;8.77;;;5.60;99.90;;;;;;5012309;28;20427;-71
2023/11/29 06:28:35;;;;;;;13.03;10.73;;;5.60;99.90;;;;;;5008002;28;20179;-60
2023/11/29 06:31:02;;;;;;;10.90;8.97;;;5.50;99.90;;;;;;5007658;28;20401;-65
2023/11/29 06:33:28;;;;;;;11.57;9.18;;;5.50;99.90;;;;;;5011081;28;20410;-66
2023/11/29 06:35:54;;;;;;;10.40;8.37;;;5.50;99.90;;;;;;4992354;28;20546;-65
2023/11/29 06:38:22;;;;;;;10.87;9.40;;;5.50;99.90;;;;;;5010007;28;20482;-65
2023/11/29 06:40:47;;;;;;;9.77;8.40;;;5.50;99.90;;;;;;4994165;28;20628;-65
2023/11/29 06:43:13;;;;;;;12.45;9.80;;;5.60;99.90;;;;;;5001075;28;20415;-64
2023/11/29 06:45:39;;;;;;;9.83;7.90;;;5.60;99.90;;;;;;4993645;28;20180;-67
2023/11/29 06:48:05;;;;;;;9.90;8.70;;;5.70;99.90;;;;;;4998598;28;20423;-64
2023/11/29 06:50:31;;;;;;;12.32;9.07;;;5.50;99.90;;;;;;5001770;28;20183;-65
2023/11/29 06:53:00;;;;;;;11.20;9.57;;;5.60;99.90;;;;;;4994992;28;20232;-65
2023/11/29 06:55:25;;;;;;;12.70;10.33;;;5.60;99.90;;;;;;5004614;28;20243;-64
2023/11/29 06:57:51;;;;;;;11.80;10.30;;;5.70;99.90;;;;;;5014529;28;20492;-64
2023/11/29 07:00:17;;;;;;;12.77;10.50;;;5.60;99.90;;;;;;5013363;28;20631;-65
2023/11/29 07:02:44;;;;;;;13.67;10.30;;;5.40;99.90;;;;;;5013817;28;20183;-64
2023/11/29 07:05:10;;;;;;;11.13;9.90;;;5.50;99.90;;;;;;5015846;28;20430;-64
2023/11/29 07:07:36;;;;;;;13.73;9.63;;;5.60;99.90;;;;;;5014975;28;20214;-64
2023/11/29 07:10:05;;;;;;;14.88;10.32;;;5.60;99.90;;;;;;5014936;28;20402;-65
2023/11/29 07:12:30;;;;;;;10.23;9.13;;;5.70;99.90;;;;;;5015717;28;20203;-65
2023/11/29 07:14:59;;;;;;;12.27;9.40;;;5.30;99.90;;;;;;5014379;28;20875;-65
2023/11/29 07:17:25;;;;;;;11.20;9.20;;;5.60;99.90;;;;;;5014917;28;20415;-63
2023/11/29 07:19:51;;;;;;;10.87;8.63;;;5.60;99.90;;;;;;5013660;28;20921;-65
2023/11/29 07:22:17;;;;;;;14.00;9.80;;;5.60;99.90;;;;;;5015281;28;20438;-64
2023/11/29 07:24:44;;;;;;;13.67;10.17;;;5.50;99.90;;;;;;5002397;28;20473;-64
2023/11/29 07:27:10;;;;;;;10.07;8.68;;;5.70;99.90;;;;;;5015239;28;20419;-64
2023/11/29 07:29:36;;;;;;;11.63;10.10;;;5.30;99.90;;;;;;4996986;28;20532;-60
2023/11/29 07:32:02;;;;;;;13.80;9.53;;;5.30;99.90;;;;;;5013230;28;20506;-64
2023/11/29 07:34:27;;;;;;;12.77;9.23;;;5.70;99.90;;;;;;5014995;28;20247;-64
2023/11/29 07:36:53;;;;;;;14.17;9.07;;;5.60;99.90;;;;;;5002607;28;20632;-66
2023/11/29 07:39:19;;;;;;;12.20;9.70;;;5.70;99.90;;;;;;4995824;28;20176;-66
2023/11/29 07:41:45;;;;;;;9.50;8.20;;;5.60;99.90;;;;;;5001618;28;20176;-64
2023/11/29 07:44:11;;;;;;;11.90;10.70;;;5.70;99.90;;;;;;5013626;28;20172;-68
2023/11/29 07:46:38;;;;;;;12.53;8.73;;;5.70;99.90;;;;;;5014706;28;20190;-61
2023/11/29 07:49:04;;;;;;;10.23;9.23;;;5.40;99.90;;;;;;4997380;28;20313;-67
2023/11/29 07:51:30;;;;;;;9.90;8.67;;;5.30;99.90;;;;;;5013836;28;20525;-62
2023/11/29 07:53:55;;;;;;;10.90;9.17;;;5.70;99.90;;;;;;5013193;28;20435;-64
2023/11/29 07:56:21;;;;;;;10.77;9.67;;;5.70;99.90;;;;;;5014496;28;20238;-66
2023/11/29 07:58:47;;;;;;;10.70;9.60;;;5.70;99.90;;;;;;5014377;28;20255;-73
2023/11/29 08:01:13;;;;;;;15.10;9.93;;;5.80;99.90;;;;;;5014235;28;20430;-73
2023/11/29 08:03:40;;;;;;;9.43;8.43;;;5.60;99.90;;;;;;4995947;28;20647;-72
2023/11/29 08:06:07;;;;;;;11.35;10.23;;;5.60;99.90;;;;;;5000107;28;20539;-73
2023/11/29 08:08:34;;;;;;;12.60;9.05;;;5.60;99.90;;;;;;4995116;28;20255;-73
2023/11/29 08:11:00;;;;;;;11.17;9.87;;;5.70;99.90;;;;;;4994454;28;20259;-73
2023/11/29 08:13:26;;;;;;;11.17;9.17;;;5.60;99.90;;;;;;5007903;28;20434;-73
2023/11/29 08:15:58;;;;;;;10.90;9.67;;;5.60;99.90;;;;;;5013907;28;20470;-73
2023/11/29 08:18:24;;;;;;;10.30;8.65;;;5.60;99.90;;;;;;5014597;28;20472;-73
2023/11/29 08:20:51;;;;;;;11.10;10.10;;;5.20;99.90;;;;;;5013973;28;20163;-74
2023/11/29 08:23:19;;;;;;;9.93;8.98;;;5.70;99.90;;;;;;5013221;28;20186;-73
2023/11/29 08:25:46;;;;;;;9.45;8.52;;;5.80;99.90;;;;;;5012920;28;20186;-74
2023/11/29 08:28:11;;;;;;;8.90;8.00;;;5.80;99.90;;;;;;5014565;28;20171;-74
2023/11/29 08:30:37;;;;;;;10.17;9.30;;;5.80;99.90;;;;;;4996951;28;20172;-74
2023/11/29 08:33:03;;;;;;;10.30;9.30;;;5.80;99.90;;;;;;5013740;28;20239;-74
2023/11/29 08:35:29;;;;;;;11.20;10.30;;;5.50;99.90;;;;;;5013633;28;20520;-74
2023/11/29 08:37:54;;;;;;;15.43;9.60;;;5.90;99.90;;;;;;4989422;28;20176;-74
2023/11/29 08:40:20;;;;;;;9.70;8.80;;;5.80;99.90;;;;;;4994610;28;20176;-68
2023/11/29 08:42:46;;;;;;;11.93;9.13;;;5.70;99.90;;;;;;5011962;28;20231;-73
2023/11/29 08:45:12;;;;;;;9.15;8.25;;;5.90;99.90;;;;;;4993646;28;20176;-73
2023/11/29 08:47:38;;;;;;;9.93;9.03;;;5.70;99.90;;;;;;4996340;28;20185;-73
2023/11/29 08:50:07;;;;;;;9.03;8.13;;;5.80;99.90;;;;;;5012045;28;20179;-76
2023/11/29 08:52:33;;;;;;;9.10;8.02;;;5.70;99.90;;;;;;5010518;28;20879;-74
2023/11/29 08:54:59;;;;;;;9.75;8.77;;;5.80;99.90;;;;;;5005012;28;20227;-73
2023/11/29 08:57:25;;;;;;;9.98;9.07;;;5.70;99.90;;;;;;5012616;28;20176;-72
2023/11/29 08:59:52;;;;;;;8.63;7.83;;;5.70;99.90;;;;;;4979254;28;20183;-72
2023/11/29 09:02:21;;;;;;;8.13;7.32;;;5.60;99.90;;;;;;5009934;28;20956;-71
2023/11/29 09:04:48;;;;;;;8.05;7.10;;;5.60;99.90;;;;;;5006131;28;20183;-70
2023/11/29 09:07:13;;;;;;;9.73;8.43;;;5.60;99.90;;;;;;5012593;28;20183;-76
2023/11/29 09:09:43;;;;;;;186.47;107.17;;;5.60;99.90;;;;;;5004402;28;20840;-71
2023/11/29 09:12:12;;;;;;;72.30;46.20;;;5.20;99.90;;;;;;5009182;28;20160;-73
2023/11/29 09:14:39;;;;;;;8.80;8.00;;;5.90;99.90;;;;;;4997594;28;20817;-72
2023/11/29 09:17:05;;;;;;;8.40;6.93;;;5.70;99.90;;;;;;4982857;28;20219;-72
2023/11/29 09:19:34;;;;;;;10.05;9.15;;;5.70;99.90;;;;;;5001566;28;20266;-72
2023/11/29 09:22:00;;;;;;;9.90;9.10;;;5.70;99.90;;;;;;5011232;28;20196;-70
2023/11/29 09:24:27;;;;;;;8.03;7.27;;;5.90;99.90;;;;;;5004108;28;20427;-72
2023/11/29 09:26:56;;;;;;;9.70;8.80;;;6.00;99.90;;;;;;4987348;28;20467;-72
2023/11/29 09:29:25;;;;;;;8.63;7.83;;;5.70;99.90;;;;;;5002114;28;20931;-72
2023/11/29 09:31:52;;;;;;;9.13;8.43;;;5.80;99.90;;;;;;4984531;28;20503;-73
2023/11/29 09:34:18;;;;;;;9.15;8.23;;;5.70;99.90;;;;;;4999921;28;20194;-72
2023/11/29 09:36:44;;;;;;;10.40;9.40;;;5.60;99.90;;;;;;4992760;28;20180;-60
2023/11/29 09:39:15;;;;;;;9.30;8.37;;;5.70;99.90;;;;;;4993567;28;20184;-73
2023/11/29 09:41:40;;;;;;;8.43;7.63;;;5.50;99.90;;;;;;4993668;28;20393;-72
2023/11/29 09:44:06;;;;;;;8.50;7.70;;;5.30;99.90;;;;;;4992926;28;20173;-73
2023/11/29 09:46:32;;;;;;;8.03;7.23;;;5.70;99.90;;;;;;4993259;28;20481;-72
2023/11/29 09:48:59;;;;;;;9.70;8.37;;;5.40;99.90;;;;;;4992497;28;20437;-72
2023/11/29 09:51:25;;;;;;;7.60;6.80;;;5.60;99.90;;;;;;5011050;28;20179;-72
2023/11/29 09:53:51;;;;;;;7.60;7.00;;;5.70;99.90;;;;;;5012028;28;20183;-72
2023/11/29 09:56:19;;;;;;;9.10;8.13;;;5.70;99.90;;;;;;5012826;28;20211;-72
2023/11/29 09:58:45;;;;;;;9.25;7.95;;;5.70;99.90;;;;;;5012597;28;20172;-61
2023/11/29 10:01:14;;;;;;;8.80;7.90;;;5.70;99.90;;;;;;5012632;28;20234;-73
2023/11/29 10:03:40;;;;;;;8.80;7.90;;;5.80;99.90;;;;;;4995375;28;20273;-72
2023/11/29 10:06:08;;;;;;;7.90;7.00;;;5.70;99.90;;;;;;5012534;28;20418;-72
2023/11/29 10:08:34;;;;;;;8.60;7.90;;;5.70;99.90;;;;;;5012439;28;20954;-73
2023/11/29 10:11:01;;;;;;;8.60;7.80;;;5.50;99.90;;;;;;5012082;28;20442;-72
2023/11/29 10:13:28;;;;;;;8.45;7.32;;;5.80;99.90;;;;;;5012477;28;20659;-72
2023/11/29 10:15:55;;;;;;;10.70;8.15;;;5.70;99.90;;;;;;5011858;28;20303;-72
2023/11/29 10:18:21;;;;;;;8.87;8.07;;;5.70;99.90;;;;;;5012613;28;20212;-72
2023/11/29 10:20:49;;;;;;;10.50;8.68;;;5.70;99.90;;;;;;5010983;28;20931;-71
2023/11/29 10:23:15;;;;;;;9.33;8.00;;;5.70;99.90;;;;;;5011723;28;20276;-72
2023/11/29 10:25:43;;;;;;;9.33;8.30;;;5.70;99.90;;;;;;5014362;28;20954;-72
2023/11/29 10:28:10;;;;;;;11.83;9.00;;;5.70;99.90;;;;;;5015231;28;20348;-72
2023/11/29 10:30:41;;;;;;;9.48;8.57;;;5.80;99.90;;;;;;5016296;28;20942;-72
2023/11/29 10:33:09;;;;;;;9.38;8.48;;;5.70;99.90;;;;;;5016001;28;20244;-72
2023/11/29 10:35:37;;;;;;;11.30;10.20;;;5.70;99.90;;;;;;5016284;28;20223;-71
2023/11/29 10:38:09;;;;;;;9.40;8.47;;;5.80;99.90;;;;;;5015746;28;20450;-71
2023/11/29 10:40:34;;;;;;;10.07;9.17;;;5.80;99.90;;;;;;5016918;28;20894;-71
2023/11/29 10:43:04;;;;;;;9.63;8.73;;;5.90;99.90;;;;;;5015731;28;20452;-72
2023/11/29 10:45:34;;;;;;;9.00;8.20;;;5.80;99.90;;;;;;5016421;28;20536;-72
2023/11/29 10:48:07;;;;;;;8.97;8.10;;;5.80;99.90;;;;;;5015311;28;20757;-72
2023/11/29 10:50:35;;;;;;;8.03;7.33;;;5.80;99.90;;;;;;5014846;28;20456;-72
2023/11/29 10:53:02;;;;;;;9.60;7.57;;;5.90;99.90;;;;;;5015514;28;20569;-72
2023/11/29 10:55:28;;;;;;;9.03;8.10;;;5.90;99.90;;;;;;4998290;28;20449;-74
2023/11/29 10:58:02;;;;;;;9.27;8.47;;;5.90;99.90;;;;;;5013744;28;20423;-71
2023/11/29 11:00:29;;;;;;;9.10;8.23;;;6.00;99.90;;;;;;5016119;28;20512;-72
2023/11/29 11:02:55;;;;;;;8.80;8.00;;;6.00;99.90;;;;;;5015439;28;20403;-71
2023/11/29 11:05:25;;;;;;;10.23;9.20;;;6.00;99.90;;;;;;5015916;28;20432;-72
2023/11/29 11:07:52;;;;;;;7.90;7.20;;;6.00;99.90;;;;;;5015056;28;20763;-71
2023/11/29 11:10:26;;;;;;;9.07;8.30;;;6.10;99.90;;;;;;5015854;28;20405;-72
2023/11/29 11:12:53;;;;;;;7.97;7.37;;;6.00;99.90;;;;;;4997604;28;20964;-71
2023/11/29 11:15:24;;;;;;;9.50;8.30;;;6.00;99.90;;;;;;5015822;28;20543;-72
2023/11/29 11:18:01;;;;;;;10.87;7.73;;;6.10;99.90;;;;;;5015429;28;20407;-61
2023/11/29 11:20:50;;;;;;;8.60;7.50;;;6.10;99.90;;;;;;5015673;28;20423;-72
2023/11/29 11:23:18;;;;;;;9.10;8.10;;;6.10;99.90;;;;;;5015315;28;20660;-73
2023/11/29 11:25:44;;;;;;;8.40;7.70;;;6.10;99.90;;;;;;5015268;28;20926;-73
2023/11/29 11:28:32;;;;;;;7.60;6.90;;;6.10;99.90;;;;;;5013524;28;20791;-73
2023/11/29 11:31:08;;;;;;;8.65;7.75;;;6.00;99.90;;;;;;5014679;28;20182;-72
2023/11/29 11:33:52;;;;;;;8.68;7.88;;;5.90;99.90;;;;;;5015457;28;20200;-73
2023/11/29 11:36:22;;;;;;;9.57;8.67;;;5.70;99.90;;;;;;5015121;28;20544;-73
2023/11/29 11:38:50;;;;;;;8.87;7.60;;;6.10;99.90;;;;;;5015400;28;20421;-73
2023/11/29 11:41:16;;;;;;;8.43;7.73;;;6.10;99.90;;;;;;5014352;28;20407;-73
2023/11/29 11:43:42;;;;;;;8.93;8.03;;;6.10;99.90;;;;;;5014563;28;20410;-72
2023/11/29 11:46:08;;;;;;;8.70;7.80;;;6.10;99.90;;;;;;5014386;28;20230;-73
2023/11/29 11:48:33;;;;;;;9.23;8.20;;;6.10;99.90;;;;;;5012108;28;20814;-73
2023/11/29 11:51:02;;;;;;;10.03;8.60;;;6.10;99.90;;;;;;5013648;28;20428;-73
2023/11/29 11:53:38;;;;;;;12.50;10.13;;;6.10;99.90;;;;;;4997239;28;20671;-73
2023/11/29 11:56:15;;;;;;;10.20;9.20;;;6.10;99.90;;;;;;5014332;28;20447;-72
2023/11/29 11:58:41;;;;;;;10.30;9.30;;;6.20;99.90;;;;;;5014988;28;20457;-73
2023/11/29 12:01:07;;;;;;;9.60;8.60;;;6.20;99.90;;;;;;5014310;28;20410;-73
2023/11/29 12:03:35;;;;;;;9.43;8.50;;;6.30;99.90;;;;;;4997579;28;20562;-72
2023/11/29 12:06:04;;;;;;;9.60;8.60;;;6.20;99.90;;;;;;4996383;28;20423;-72
2023/11/29 12:08:32;;;;;;;11.50;8.83;;;6.30;99.90;;;;;;5014446;28;20414;-72
2023/11/29 12:10:57;;;;;;;9.87;8.93;;;6.30;99.90;;;;;;4996441;28;20546;-73
2023/11/29 12:13:24;;;;;;;10.10;9.10;;;6.50;99.90;;;;;;5014412;28;20890;-73
2023/11/29 12:15:50;;;;;;;10.67;9.07;;;6.50;99.90;;;;;;5014300;28;20223;-73
2023/11/29 12:18:16;;;;;;;10.20;8.90;;;6.60;99.90;;;;;;5012600;28;20797;-72
2023/11/29 12:20:43;;;;;;;10.10;9.20;;;6.60;99.90;;;;;;4997154;28;20252;-73
2023/11/29 12:23:12;;;;;;;10.43;9.50;;;6.70;99.90;;;;;;5013872;28;20773;-73
2023/11/29 12:25:39;;;;;;;10.27;9.20;;;6.60;99.90;;;;;;5012457;28;20425;-73
2023/11/29 12:28:05;;;;;;;12.97;8.90;;;6.60;99.90;;;;;;5013899;28;20496;-72
2023/11/29 12:30:31;;;;;;;10.68;9.00;;;6.60;99.90;;;;;;5013265;28;20487;-70
2023/11/29 12:32:57;;;;;;;9.27;8.40;;;6.60;99.90;;;;;;4994108;28;20635;-71
2023/11/29 12:35:24;;;;;;;9.30;8.30;;;6.70;99.90;;;;;;4986749;28;20209;-71
2023/11/29 12:37:54;;;;;;;10.07;8.50;;;6.60;99.90;;;;;;5011369;28;20662;-71
2023/11/29 12:40:20;;;;;;;9.33;8.50;;;6.60;99.90;;;;;;5010367;28;20456;-73
2023/11/29 12:42:47;;;;;;;9.43;8.50;;;6.60;99.90;;;;;;5004996;28;20477;-73
2023/11/29 12:45:16;;;;;;;10.00;9.10;;;6.60;99.90;;;;;;5004382;28;20417;-73
2023/11/29 12:47:42;;;;;;;9.30;8.40;;;6.70;99.90;;;;;;5005372;28;20424;-73
2023/11/29 12:50:09;;;;;;;9.70;8.47;;;6.80;99.90;;;;;;5002766;28;20418;-73